createdAt,value
2023-05-04T00:01:11.136Z,7.26
2023-05-04T00:03:38.844Z,7.19
2023-05-04T00:06:05.996Z,7.15
2023-05-04T00:08:32.963Z,7.11
2023-05-04T00:10:59.883Z,7.06
2023-05-04T00:13:27.034Z,7.00
2023-05-04T00:15:54.127Z,6.96
2023-05-04T00:18:21.662Z,6.90
2023-05-04T00:20:48.704Z,6.87
2023-05-04T00:23:15.634Z,6.87
2023-05-04T00:25:42.676Z,6.87
2023-05-04T00:28:09.630Z,6.93
2023-05-04T00:30:36.572Z,7.02
2023-05-04T00:33:03.781Z,7.14
2023-05-04T00:35:31.893Z,7.18
2023-05-04T00:37:58.936Z,7.14
2023-05-04T00:40:25.885Z,7.08
2023-05-04T00:42:52.922Z,7.03
2023-05-04T00:45:20.400Z,7.02
2023-05-04T00:47:48.731Z,7.07
2023-05-04T00:50:15.827Z,7.15
2023-05-04T00:52:43.880Z,7.15
2023-05-04T00:55:11.540Z,7.10
2023-05-04T00:57:38.724Z,7.04
2023-05-04T01:00:07.057Z,7.08
2023-05-04T01:02:35.082Z,7.16
2023-05-04T01:05:02.410Z,7.27
2023-05-04T01:07:54.018Z,7.36
2023-05-04T01:10:27.838Z,7.43
2023-05-04T01:13:04.461Z,7.52
2023-05-04T01:15:32.682Z,7.59
2023-05-04T01:17:59.720Z,7.70
2023-05-04T01:20:26.864Z,7.77
2023-05-04T01:22:53.910Z,7.81
2023-05-04T01:25:21.157Z,7.81
2023-05-04T01:28:02.766Z,7.77
2023-05-04T01:30:36.312Z,7.73
2023-05-04T01:33:03.739Z,7.67
2023-05-04T01:35:30.852Z,7.62
2023-05-04T01:37:57.795Z,7.57
2023-05-04T01:40:24.853Z,7.57
2023-05-04T01:42:51.885Z,7.58
2023-05-04T01:45:19.250Z,7.57
2023-05-04T01:47:46.849Z,7.57
2023-05-04T01:50:13.849Z,7.61
2023-05-04T01:52:40.895Z,7.67
2023-05-04T01:55:08.463Z,7.65
2023-05-04T01:57:35.595Z,7.60
2023-05-04T02:00:04.223Z,7.52
2023-05-04T02:02:43.340Z,7.44
2023-05-04T02:05:11.083Z,7.39
2023-05-04T02:07:38.934Z,7.37
2023-05-04T02:10:08.960Z,7.37
2023-05-04T02:12:36.025Z,7.36
2023-05-04T02:15:03.663Z,7.39
2023-05-04T02:17:31.690Z,7.45
2023-05-04T02:19:58.678Z,7.51
2023-05-04T02:22:25.845Z,7.55
2023-05-04T02:24:53.078Z,7.59
2023-05-04T02:27:20.968Z,7.60
2023-05-04T02:29:48.924Z,7.61
2023-05-04T02:32:15.972Z,7.60
2023-05-04T02:34:43.537Z,7.61
2023-05-04T02:37:10.568Z,7.61
2023-05-04T02:39:37.925Z,7.57
2023-05-04T02:42:05.274Z,7.48
2023-05-04T02:44:32.433Z,7.42
2023-05-04T02:46:59.473Z,7.37
2023-05-04T02:49:26.522Z,7.31
2023-05-04T02:51:53.783Z,7.25
2023-05-04T02:54:21.022Z,7.19
2023-05-04T02:56:48.077Z,7.14
2023-05-04T02:59:15.218Z,7.12
2023-05-04T03:01:42.212Z,7.14
2023-05-04T03:04:09.231Z,7.22
2023-05-04T03:06:36.575Z,7.30
2023-05-04T03:09:04.646Z,7.35
2023-05-04T03:11:31.582Z,7.37
2023-05-04T03:13:58.632Z,7.36
2023-05-04T03:16:25.840Z,7.36
2023-05-04T03:18:52.928Z,7.42
2023-05-04T03:21:19.980Z,7.55
2023-05-04T03:23:48.245Z,7.60
2023-05-04T03:26:15.403Z,7.61
2023-05-04T03:28:42.450Z,7.66
2023-05-04T03:31:09.698Z,7.69
2023-05-04T03:33:36.977Z,7.73
2023-05-04T03:36:04.722Z,7.80
2023-05-04T03:38:31.926Z,7.93
2023-05-04T03:40:59.316Z,8.08
2023-05-04T03:43:26.365Z,8.29
2023-05-04T03:45:54.054Z,8.55
2023-05-04T03:48:21.291Z,8.81
2023-05-04T03:50:48.527Z,9.08
2023-05-04T03:53:15.679Z,9.34
2023-05-04T03:55:42.935Z,9.63
2023-05-04T03:58:10.386Z,9.97
2023-05-04T04:00:37.440Z,10.30
2023-05-04T04:03:09.653Z,10.64
2023-05-04T04:05:37.184Z,10.97
2023-05-04T04:08:04.310Z,11.33
2023-05-04T04:10:31.666Z,11.67
2023-05-04T04:12:58.664Z,11.99
2023-05-04T04:15:25.648Z,12.29
2023-05-04T04:17:53.008Z,12.58
2023-05-04T04:20:20.061Z,12.92
2023-05-04T04:22:47.098Z,13.20
2023-05-04T04:25:14.050Z,13.32
2023-05-04T04:27:41.741Z,13.43
2023-05-04T04:30:09.371Z,13.56
2023-05-04T04:32:37.654Z,13.71
2023-05-04T04:35:05.282Z,13.87
2023-05-04T04:37:32.246Z,13.97
2023-05-04T04:39:59.296Z,14.12
2023-05-04T04:42:26.456Z,14.21
2023-05-04T04:44:53.593Z,14.33
2023-05-04T04:47:20.638Z,14.54
2023-05-04T04:49:47.994Z,14.74
2023-05-04T04:52:15.729Z,14.88
2023-05-04T04:54:42.806Z,14.86
2023-05-04T04:57:10.570Z,14.85
2023-05-04T04:59:38.328Z,14.89
2023-05-04T05:02:05.378Z,15.01
2023-05-04T05:04:32.680Z,15.10
2023-05-04T05:06:59.888Z,15.05
2023-05-04T05:09:27.032Z,14.97
2023-05-04T05:11:54.090Z,14.93
2023-05-04T05:14:21.039Z,14.94
2023-05-04T05:16:48.085Z,14.98
2023-05-04T05:19:15.526Z,15.05
2023-05-04T05:21:42.470Z,15.23
2023-05-04T05:24:09.620Z,15.40
2023-05-04T05:26:36.672Z,15.46
2023-05-04T05:29:03.822Z,15.48
2023-05-04T05:31:30.780Z,15.60
2023-05-04T05:33:57.814Z,15.67
2023-05-04T05:36:24.754Z,15.63
2023-05-04T05:38:52.630Z,15.58
2023-05-04T05:41:19.560Z,15.56
2023-05-04T05:43:46.503Z,15.61
2023-05-04T05:46:13.697Z,15.57
2023-05-04T05:48:42.777Z,15.55
2023-05-04T05:51:09.901Z,15.54
2023-05-04T05:53:36.945Z,15.51
2023-05-04T05:56:04.100Z,15.46
2023-05-04T05:58:31.465Z,15.46
2023-05-04T06:00:58.505Z,15.41
2023-05-04T06:03:25.808Z,15.42
2023-05-04T06:05:52.897Z,15.54
2023-05-04T06:08:19.893Z,15.68
2023-05-04T06:10:46.885Z,15.75
2023-05-04T06:13:13.955Z,15.81
2023-05-04T06:15:41.079Z,15.78
2023-05-04T06:18:08.159Z,15.82
2023-05-04T06:20:35.077Z,15.79
2023-05-04T06:23:02.023Z,15.78
2023-05-04T06:25:29.075Z,15.92
2023-05-04T06:27:56.136Z,16.09
2023-05-04T06:30:24.637Z,16.33
2023-05-04T06:32:51.706Z,16.53
2023-05-04T06:35:19.215Z,16.73
2023-05-04T06:37:46.654Z,16.88
2023-05-04T06:40:14.348Z,16.88
2023-05-04T06:42:41.776Z,16.98
2023-05-04T06:45:09.389Z,17.06
2023-05-04T06:47:38.123Z,17.23
2023-05-04T06:50:09.704Z,17.35
2023-05-04T06:52:41.288Z,17.46
2023-05-04T06:55:08.485Z,17.60
2023-05-04T06:57:35.724Z,17.68
2023-05-04T07:00:04.708Z,17.74
2023-05-04T07:02:32.097Z,17.92
2023-05-04T07:04:59.125Z,18.16
2023-05-04T07:07:26.166Z,18.35
2023-05-04T07:09:53.211Z,18.38
2023-05-04T07:12:20.360Z,18.54
2023-05-04T07:14:47.421Z,18.71
2023-05-04T07:17:15.255Z,18.83
2023-05-04T07:19:42.525Z,18.99
2023-05-04T07:22:09.567Z,19.08
2023-05-04T07:24:36.728Z,19.25
2023-05-04T07:27:03.869Z,19.30
2023-05-04T07:29:31.424Z,19.40
2023-05-04T07:31:58.527Z,19.39
2023-05-04T07:34:37.729Z,19.45
2023-05-04T07:37:05.887Z,19.60
2023-05-04T07:39:35.224Z,19.66
2023-05-04T07:42:06.218Z,19.69
2023-05-04T07:44:33.280Z,19.79
2023-05-04T07:47:01.046Z,19.95
2023-05-04T07:49:28.072Z,20.00
2023-05-04T07:51:55.373Z,20.02
2023-05-04T07:54:23.079Z,20.23
2023-05-04T07:56:50.649Z,20.39
2023-05-04T07:59:18.781Z,20.59
2023-05-04T08:01:46.915Z,20.81
2023-05-04T08:04:14.289Z,20.92
2023-05-04T08:06:41.909Z,20.92
2023-05-04T08:09:09.386Z,20.86
2023-05-04T08:11:38.318Z,20.77
2023-05-04T08:14:05.408Z,20.73
2023-05-04T08:16:32.760Z,20.82
2023-05-04T08:19:00.214Z,20.75
2023-05-04T08:21:27.363Z,20.49
2023-05-04T08:23:54.435Z,20.43
2023-05-04T08:26:21.460Z,20.47
2023-05-04T08:28:49.118Z,20.55
2023-05-04T08:31:18.487Z,20.53
2023-05-04T08:33:46.392Z,20.49
2023-05-04T08:36:13.437Z,20.32
2023-05-04T08:38:40.491Z,20.23
2023-05-04T08:41:09.206Z,20.14
2023-05-04T08:43:37.149Z,20.15
2023-05-04T08:46:05.072Z,20.13
2023-05-04T08:48:33.696Z,20.20
2023-05-04T08:51:01.251Z,20.26
2023-05-04T08:53:28.294Z,20.21
2023-05-04T08:55:56.157Z,20.35
2023-05-04T08:58:23.050Z,20.63
2023-05-04T09:00:50.089Z,20.91
2023-05-04T09:03:17.270Z,21.09
2023-05-04T09:05:45.093Z,21.23
2023-05-04T09:08:11.982Z,21.27
2023-05-04T09:10:38.917Z,21.34
2023-05-04T09:13:05.871Z,21.21
2023-05-04T12:17:42.347Z,24.46
2023-05-04T12:20:10.294Z,24.52
2023-05-04T12:22:37.926Z,24.73
2023-05-04T12:25:07.543Z,25.11
2023-05-04T12:27:34.881Z,25.49
2023-05-04T12:30:01.934Z,25.53
2023-05-04T12:32:29.410Z,25.34
2023-05-04T12:34:56.537Z,24.99
2023-05-04T12:37:25.096Z,24.52
2023-05-04T12:39:52.261Z,24.26
2023-05-04T12:42:19.428Z,24.09
2023-05-04T12:44:46.360Z,24.07
2023-05-04T12:47:14.432Z,24.00
2023-05-04T12:49:41.321Z,23.91
2023-05-04T12:52:09.143Z,23.85
2023-05-04T12:54:36.079Z,23.82
2023-05-04T12:57:03.646Z,23.70
2023-05-04T12:59:30.588Z,23.85
2023-05-04T13:01:57.632Z,23.91
2023-05-04T13:04:24.680Z,23.99
2023-05-04T13:06:52.136Z,24.29
2023-05-04T13:09:20.898Z,24.63
2023-05-04T13:11:48.605Z,25.00
2023-05-04T13:14:15.633Z,25.25
2023-05-04T13:16:42.680Z,25.35
2023-05-04T13:19:09.628Z,25.53
2023-05-04T13:21:36.782Z,25.68
2023-05-04T13:24:04.111Z,25.81
2023-05-04T13:26:31.686Z,26.14
2023-05-04T13:28:58.631Z,26.29
2023-05-04T13:31:25.725Z,26.18
2023-05-04T13:33:53.547Z,26.25
2023-05-04T13:36:21.101Z,26.09
2023-05-04T13:38:48.207Z,25.98
2023-05-04T13:41:15.564Z,25.98
2023-05-04T13:43:42.652Z,26.20
2023-05-04T13:46:09.831Z,26.51
2023-05-04T13:48:36.846Z,26.60
2023-05-04T13:51:04.518Z,26.53
2023-05-04T13:53:31.454Z,26.72
2023-05-04T13:55:58.708Z,27.09
2023-05-04T13:58:25.854Z,27.17
2023-05-04T14:00:56.901Z,27.19
2023-05-04T14:03:23.973Z,27.38
2023-05-04T14:05:51.825Z,27.53
2023-05-04T14:08:18.809Z,27.61
2023-05-04T14:10:45.798Z,27.69
2023-05-04T14:13:12.986Z,27.64
2023-05-04T14:15:40.813Z,27.47
2023-05-04T14:18:08.003Z,27.31
2023-05-04T14:20:35.312Z,27.19
2023-05-04T14:23:02.871Z,26.80
2023-05-04T14:25:29.921Z,26.61
2023-05-04T14:27:57.474Z,26.75
2023-05-04T14:30:25.246Z,26.63
2023-05-04T14:32:55.849Z,26.35
2023-05-04T14:35:23.028Z,26.20
2023-05-04T14:37:50.883Z,26.15
2023-05-04T14:40:18.048Z,25.92
2023-05-04T14:42:44.976Z,25.62
2023-05-04T14:45:13.256Z,25.17
2023-05-04T14:47:42.419Z,24.84
2023-05-04T14:50:10.393Z,24.67
2023-05-04T14:52:37.878Z,24.64
2023-05-04T14:55:06.896Z,24.56
2023-05-04T14:57:33.924Z,24.29
2023-05-04T15:00:01.267Z,24.15
2023-05-04T15:02:28.257Z,23.99
2023-05-04T15:04:55.482Z,23.81
2023-05-04T15:07:23.131Z,23.71
2023-05-04T15:09:50.067Z,23.59
2023-05-04T15:12:17.950Z,23.37
2023-05-04T15:14:44.885Z,23.10
2023-05-04T15:17:11.923Z,22.80
2023-05-04T15:19:39.406Z,22.57
2023-05-04T15:22:06.960Z,22.49
2023-05-04T15:24:33.989Z,22.45
2023-05-04T15:27:02.223Z,22.41
2023-05-04T15:29:29.672Z,22.42
2023-05-04T15:31:56.797Z,22.37
2023-05-04T15:34:24.018Z,22.29
2023-05-04T15:36:50.956Z,22.22
2023-05-04T15:39:17.901Z,22.09
2023-05-04T15:41:44.860Z,21.92
2023-05-04T15:44:12.000Z,21.72
2023-05-04T15:46:38.957Z,21.55
2023-05-04T15:49:05.883Z,21.36
2023-05-04T15:51:32.935Z,21.18
2023-05-04T15:54:00.309Z,21.00
2023-05-04T15:56:28.148Z,20.84
2023-05-04T15:58:55.193Z,20.67
2023-05-04T16:01:22.458Z,20.53
2023-05-04T16:03:49.535Z,20.38
2023-05-04T16:06:17.922Z,20.24
2023-05-04T16:08:45.129Z,20.11
2023-05-04T16:11:12.288Z,19.98
2023-05-04T16:13:39.320Z,19.82
2023-05-04T16:16:06.985Z,19.68
2023-05-04T16:18:34.033Z,19.54
2023-05-04T16:21:01.098Z,19.42
2023-05-04T16:23:28.532Z,19.30
2023-05-04T16:25:56.296Z,19.18
2023-05-04T16:28:23.370Z,19.07
2023-05-04T16:30:51.033Z,18.93
2023-05-04T16:33:19.281Z,18.80
2023-05-04T16:35:47.350Z,18.68
2023-05-04T16:38:14.395Z,18.58
2023-05-04T16:40:42.048Z,18.49
2023-05-04T16:43:10.640Z,18.40
2023-05-04T16:45:38.521Z,18.32
2023-05-04T16:48:05.892Z,18.22
2023-05-04T16:50:33.117Z,18.12
2023-05-04T16:53:00.174Z,17.99
2023-05-04T16:55:27.716Z,17.87
2023-05-04T16:57:58.080Z,17.74
2023-05-04T17:00:25.195Z,17.59
2023-05-04T17:02:53.086Z,17.46
2023-05-04T17:05:21.360Z,17.32
2023-05-04T17:07:48.290Z,17.18
2023-05-04T17:10:15.651Z,17.03
2023-05-04T17:12:42.703Z,16.90
2023-05-04T17:15:10.130Z,16.75
2023-05-04T17:17:37.347Z,16.61
2023-05-04T17:20:04.940Z,16.48
2023-05-04T17:22:32.325Z,16.33
2023-05-04T17:24:59.867Z,16.22
2023-05-04T17:27:26.797Z,16.09
2023-05-04T17:29:53.756Z,15.96
2023-05-04T17:32:20.817Z,15.84
2023-05-04T17:34:47.938Z,15.72
2023-05-04T17:37:14.781Z,15.62
2023-05-04T17:39:41.725Z,15.54
2023-05-04T17:42:08.675Z,15.46
2023-05-04T17:44:35.514Z,15.36
2023-05-04T17:47:02.373Z,15.28
2023-05-04T17:49:29.331Z,15.20
2023-05-04T17:51:56.752Z,15.13
2023-05-04T17:54:23.614Z,15.07
2023-05-04T17:56:50.868Z,15.00
2023-05-04T17:59:17.999Z,14.93
2023-05-04T18:01:44.975Z,14.88
2023-05-04T18:04:11.985Z,14.82
2023-05-04T18:06:39.444Z,14.76
2023-05-04T18:09:06.385Z,14.70
2023-05-04T18:11:33.429Z,14.66
2023-05-04T18:14:00.279Z,14.63
2023-05-04T18:16:27.188Z,14.60
2023-05-04T18:18:54.795Z,14.57
2023-05-04T18:21:23.568Z,14.52
2023-05-04T18:23:50.404Z,14.46
2023-05-04T18:26:17.873Z,14.41
2023-05-04T18:28:44.714Z,14.37
2023-05-04T18:31:12.065Z,14.33
2023-05-04T18:33:39.308Z,14.31
2023-05-04T18:36:06.761Z,14.30
2023-05-04T18:38:34.428Z,14.31
2023-05-04T18:41:01.682Z,14.29
2023-05-04T18:43:28.623Z,14.26
2023-05-04T18:45:56.143Z,14.26
2023-05-04T18:48:23.225Z,14.29
2023-05-04T18:50:52.551Z,14.30
2023-05-04T18:53:19.882Z,14.31
2023-05-04T18:55:46.828Z,14.32
2023-05-04T18:58:14.179Z,14.32
2023-05-04T19:00:42.764Z,14.30
2023-05-04T19:03:09.773Z,14.27
2023-05-04T19:05:37.164Z,14.22
2023-05-04T19:08:04.014Z,14.22
2023-05-04T19:10:32.049Z,14.21
2023-05-04T19:13:00.663Z,14.17
2023-05-04T19:15:28.554Z,14.11
2023-05-04T19:17:55.501Z,14.06
2023-05-04T19:20:23.030Z,14.02
2023-05-04T19:22:49.870Z,13.97
2023-05-04T19:25:30.985Z,13.91
2023-05-04T19:28:08.132Z,13.86
2023-05-04T19:30:38.967Z,13.84
2023-05-04T19:33:06.227Z,13.83
2023-05-04T19:35:33.775Z,13.84
2023-05-04T19:38:01.915Z,13.82
2023-05-04T19:40:29.213Z,13.78
2023-05-04T19:42:56.145Z,13.75
2023-05-04T19:45:23.598Z,13.74
2023-05-04T19:47:52.598Z,13.76
2023-05-04T19:50:20.575Z,13.77
2023-05-04T19:52:47.516Z,13.80
2023-05-04T19:55:14.451Z,13.84
2023-05-04T19:57:41.499Z,13.90
2023-05-04T20:00:10.156Z,13.96
2023-05-04T20:02:40.517Z,14.03
2023-05-04T20:05:07.757Z,14.11
2023-05-04T20:07:34.592Z,14.19
2023-05-04T20:10:01.690Z,14.29
2023-05-04T20:12:28.716Z,14.38
2023-05-04T20:14:55.735Z,14.29
2023-05-04T20:17:23.569Z,14.16
2023-05-04T20:19:50.548Z,14.06
2023-05-04T20:22:17.395Z,14.05
2023-05-04T20:24:44.429Z,14.05
2023-05-04T20:27:11.682Z,14.00
2023-05-04T20:29:38.526Z,13.94
2023-05-04T20:32:07.262Z,13.90
2023-05-04T20:34:34.359Z,13.88
2023-05-04T20:37:01.402Z,13.83
2023-05-04T20:39:28.245Z,13.77
2023-05-04T20:41:55.088Z,13.73
2023-05-04T20:44:22.382Z,13.65
2023-05-04T20:46:49.508Z,13.57
2023-05-04T20:49:16.440Z,13.51
2023-05-04T20:51:43.373Z,13.43
2023-05-04T20:54:10.248Z,13.34
2023-05-04T20:56:37.264Z,13.25
2023-05-04T20:59:04.116Z,13.15
2023-05-04T21:01:31.080Z,13.07
2023-05-04T21:03:58.139Z,12.98
2023-05-04T21:06:25.456Z,12.90
2023-05-04T21:08:52.237Z,12.82
2023-05-04T21:11:19.135Z,12.74
2023-05-04T21:13:45.974Z,12.67
2023-05-04T21:16:12.939Z,12.62
2023-05-04T21:18:39.764Z,12.61
2023-05-04T21:21:06.805Z,12.61
2023-05-04T21:23:33.655Z,12.62
2023-05-04T21:26:03.784Z,12.69
2023-05-04T21:28:30.724Z,12.76
2023-05-04T21:30:57.557Z,12.85
2023-05-04T21:33:24.507Z,12.91
2023-05-04T21:35:51.548Z,12.90
2023-05-04T21:38:20.326Z,12.85
2023-05-04T21:40:48.917Z,12.79
2023-05-04T21:43:16.068Z,12.73
2023-05-04T21:45:43.008Z,12.64
2023-05-04T21:48:10.121Z,12.56
2023-05-04T21:50:37.310Z,12.47
2023-05-04T21:53:04.255Z,12.39
2023-05-04T21:55:32.124Z,12.31
2023-05-04T21:57:58.964Z,12.23
2023-05-04T22:00:27.806Z,12.16
2023-05-04T22:02:55.299Z,12.10
2023-05-04T22:05:23.199Z,12.04
2023-05-04T22:07:50.741Z,12.01
2023-05-04T22:10:17.991Z,12.00
2023-05-04T22:12:45.278Z,12.00
2023-05-04T22:15:12.382Z,12.00
2023-05-04T22:17:39.380Z,12.00
2023-05-04T22:20:07.058Z,11.98
2023-05-04T22:22:34.549Z,11.98
2023-05-04T22:25:01.917Z,11.99
2023-05-04T22:27:28.850Z,11.97
2023-05-04T22:29:55.792Z,11.91
2023-05-04T22:32:22.751Z,11.84
2023-05-04T22:34:49.573Z,11.73
2023-05-04T22:37:16.520Z,11.65
2023-05-04T22:39:43.362Z,11.56
2023-05-04T22:42:10.493Z,11.47
2023-05-04T22:44:37.357Z,11.39
2023-05-04T22:47:04.405Z,11.30
2023-05-04T22:49:31.242Z,11.21
2023-05-04T22:51:58.085Z,11.11
2023-05-04T22:54:25.033Z,11.04
2023-05-04T22:56:51.875Z,10.99
2023-05-04T22:59:18.727Z,10.94
2023-05-04T23:01:45.714Z,10.88
2023-05-04T23:04:12.814Z,10.85
2023-05-04T23:06:39.867Z,10.80
2023-05-04T23:09:06.807Z,10.73
2023-05-04T23:11:33.848Z,10.67
2023-05-04T23:14:01.205Z,10.63
2023-05-04T23:16:28.172Z,10.60
2023-05-04T23:18:55.083Z,10.57
2023-05-04T23:21:22.140Z,10.54
2023-05-04T23:23:50.307Z,10.54
2023-05-04T23:26:17.556Z,10.55
2023-05-04T23:28:44.400Z,10.55
2023-05-04T23:31:11.691Z,10.54
2023-05-04T23:33:38.605Z,10.56
2023-05-04T23:36:06.257Z,10.59
2023-05-04T23:38:33.036Z,10.61
2023-05-04T23:41:02.308Z,10.66
2023-05-04T23:43:29.138Z,10.69
2023-05-04T23:46:02.678Z,10.72
2023-05-04T23:48:30.098Z,10.72
2023-05-04T23:50:58.678Z,10.72
2023-05-04T23:53:26.334Z,10.71
2023-05-04T23:55:57.375Z,10.69
2023-05-04T23:58:24.216Z,10.67
